sensor_id;sensor_type;location;lat;lon;timestamp;P1;durP1;ratioP1;P2;durP2;ratioP2
18661;SDS011;61528;49.456;11.098;2023-08-06T00:00:27;4.13;;;3.83;;
18661;SDS011;61528;49.456;11.098;2023-08-06T00:02:53;6.10;;;3.93;;
18661;SDS011;61528;49.456;11.098;2023-08-06T00:05:19;4.87;;;4.37;;
18661;SDS011;61528;49.456;11.098;2023-08-06T00:07:49;4.60;;;3.83;;
18661;SDS011;61528;49.456;11.098;2023-08-06T00:10:16;4.33;;;3.70;;
18661;SDS011;61528;49.456;11.098;2023-08-06T00:12:43;3.80;;;3.50;;
18661;SDS011;61528;49.456;11.098;2023-08-06T00:15:10;3.53;;;3.23;;
18661;SDS011;61528;49.456;11.098;2023-08-06T00:17:36;3.77;;;3.47;;
18661;SDS011;61528;49.456;11.098;2023-08-06T00:20:03;4.30;;;3.57;;
18661;SDS011;61528;49.456;11.098;2023-08-06T00:22:32;3.60;;;3.27;;
18661;SDS011;61528;49.456;11.098;2023-08-06T00:24:58;4.27;;;3.77;;
18661;SDS011;61528;49.456;11.098;2023-08-06T00:27:24;3.23;;;3.03;;
18661;SDS011;61528;49.456;11.098;2023-08-06T00:29:51;3.70;;;3.40;;
18661;SDS011;61528;49.456;11.098;2023-08-06T00:32:17;4.00;;;3.63;;
18661;SDS011;61528;49.456;11.098;2023-08-06T00:34:44;5.37;;;3.40;;
18661;SDS011;61528;49.456;11.098;2023-08-06T00:37:10;4.10;;;3.63;;
18661;SDS011;61528;49.456;11.098;2023-08-06T00:39:36;3.97;;;3.67;;
18661;SDS011;61528;49.456;11.098;2023-08-06T00:42:03;3.67;;;3.37;;
18661;SDS011;61528;49.456;11.098;2023-08-06T00:44:29;4.77;;;3.70;;
18661;SDS011;61528;49.456;11.098;2023-08-06T00:46:56;3.57;;;3.27;;
18661;SDS011;61528;49.456;11.098;2023-08-06T00:49:22;4.30;;;3.90;;
18661;SDS011;61528;49.456;11.098;2023-08-06T00:51:49;3.33;;;3.03;;
18661;SDS011;61528;49.456;11.098;2023-08-06T00:54:15;4.27;;;3.50;;
18661;SDS011;61528;49.456;11.098;2023-08-06T00:56:42;3.57;;;3.27;;
18661;SDS011;61528;49.456;11.098;2023-08-06T00:59:09;4.50;;;3.47;;
18661;SDS011;61528;49.456;11.098;2023-08-06T01:01:37;3.50;;;3.20;;
18661;SDS011;61528;49.456;11.098;2023-08-06T01:04:03;3.80;;;3.40;;
18661;SDS011;61528;49.456;11.098;2023-08-06T01:06:39;3.80;;;3.50;;
18661;SDS011;61528;49.456;11.098;2023-08-06T01:09:21;4.07;;;3.60;;
18661;SDS011;61528;49.456;11.098;2023-08-06T01:16:46;4.57;;;3.70;;
18661;SDS011;61528;49.456;11.098;2023-08-06T01:19:20;4.20;;;3.80;;
18661;SDS011;61528;49.456;11.098;2023-08-06T01:21:47;4.27;;;3.63;;
18661;SDS011;61528;49.456;11.098;2023-08-06T01:24:13;4.27;;;3.50;;
18661;SDS011;61528;49.456;11.098;2023-08-06T01:26:44;3.50;;;3.20;;
18661;SDS011;61528;49.456;11.098;2023-08-06T01:29:14;3.57;;;3.13;;
18661;SDS011;61528;49.456;11.098;2023-08-06T01:31:41;3.47;;;3.17;;
18661;SDS011;61528;49.456;11.098;2023-08-06T01:34:13;4.33;;;3.17;;
18661;SDS011;61528;49.456;11.098;2023-08-06T01:36:43;2.93;;;2.73;;
18661;SDS011;61528;49.456;11.098;2023-08-06T01:39:10;3.63;;;2.87;;
18661;SDS011;61528;49.456;11.098;2023-08-06T01:41:36;3.33;;;3.03;;
18661;SDS011;61528;49.456;11.098;2023-08-06T01:44:02;5.07;;;3.00;;
18661;SDS011;61528;49.456;11.098;2023-08-06T01:46:28;3.47;;;3.17;;
18661;SDS011;61528;49.456;11.098;2023-08-06T01:48:55;3.40;;;3.10;;
18661;SDS011;61528;49.456;11.098;2023-08-06T01:51:21;4.50;;;3.20;;
18661;SDS011;61528;49.456;11.098;2023-08-06T01:53:48;3.50;;;2.80;;
18661;SDS011;61528;49.456;11.098;2023-08-06T01:56:14;3.63;;;2.77;;
18661;SDS011;61528;49.456;11.098;2023-08-06T01:58:40;3.10;;;2.63;;
18661;SDS011;61528;49.456;11.098;2023-08-06T02:01:06;2.80;;;2.60;;
18661;SDS011;61528;49.456;11.098;2023-08-06T02:03:33;3.63;;;2.97;;
18661;SDS011;61528;49.456;11.098;2023-08-06T02:06:01;3.03;;;2.73;;
18661;SDS011;61528;49.456;11.098;2023-08-06T02:08:27;3.10;;;2.90;;
18661;SDS011;61528;49.456;11.098;2023-08-06T02:10:54;4.23;;;2.80;;
18661;SDS011;61528;49.456;11.098;2023-08-06T02:13:21;3.57;;;2.50;;
18661;SDS011;61528;49.456;11.098;2023-08-06T02:15:47;3.10;;;2.90;;
18661;SDS011;61528;49.456;11.098;2023-08-06T02:18:14;2.80;;;2.60;;
18661;SDS011;61528;49.456;11.098;2023-08-06T02:20:40;2.57;;;2.27;;
18661;SDS011;61528;49.456;11.098;2023-08-06T02:23:06;3.23;;;2.80;;
18661;SDS011;61528;49.456;11.098;2023-08-06T02:25:33;2.40;;;2.20;;
18661;SDS011;61528;49.456;11.098;2023-08-06T02:27:59;2.70;;;2.50;;
18661;SDS011;61528;49.456;11.098;2023-08-06T02:30:25;3.13;;;2.50;;
18661;SDS011;61528;49.456;11.098;2023-08-06T02:32:52;2.60;;;2.40;;
18661;SDS011;61528;49.456;11.098;2023-08-06T02:35:18;3.07;;;2.57;;
18661;SDS011;61528;49.456;11.098;2023-08-06T02:37:44;2.60;;;2.40;;
18661;SDS011;61528;49.456;11.098;2023-08-06T02:40:11;3.03;;;2.83;;
18661;SDS011;61528;49.456;11.098;2023-08-06T02:42:37;2.80;;;2.53;;
18661;SDS011;61528;49.456;11.098;2023-08-06T02:45:03;3.00;;;2.67;;
18661;SDS011;61528;49.456;11.098;2023-08-06T02:47:30;2.90;;;2.60;;
18661;SDS011;61528;49.456;11.098;2023-08-06T02:49:57;3.93;;;2.50;;
18661;SDS011;61528;49.456;11.098;2023-08-06T02:52:23;2.80;;;2.47;;
18661;SDS011;61528;49.456;11.098;2023-08-06T02:54:49;3.40;;;2.40;;
18661;SDS011;61528;49.456;11.098;2023-08-06T02:57:16;2.53;;;2.33;;
18661;SDS011;61528;49.456;11.098;2023-08-06T02:59:42;2.90;;;2.27;;
18661;SDS011;61528;49.456;11.098;2023-08-06T03:02:09;3.20;;;2.30;;
18661;SDS011;61528;49.456;11.098;2023-08-06T03:04:35;2.43;;;2.20;;
18661;SDS011;61528;49.456;11.098;2023-08-06T03:07:02;2.83;;;2.63;;
18661;SDS011;61528;49.456;11.098;2023-08-06T03:09:28;2.50;;;2.30;;
18661;SDS011;61528;49.456;11.098;2023-08-06T03:11:54;2.50;;;2.30;;
18661;SDS011;61528;49.456;11.098;2023-08-06T03:14:20;3.17;;;2.47;;
18661;SDS011;61528;49.456;11.098;2023-08-06T03:16:47;2.60;;;2.40;;
18661;SDS011;61528;49.456;11.098;2023-08-06T03:19:13;2.93;;;2.60;;
18661;SDS011;61528;49.456;11.098;2023-08-06T03:21:40;2.90;;;2.70;;
18661;SDS011;61528;49.456;11.098;2023-08-06T03:24:06;2.67;;;2.37;;
18661;SDS011;61528;49.456;11.098;2023-08-06T03:26:32;3.10;;;2.23;;
18661;SDS011;61528;49.456;11.098;2023-08-06T03:28:59;3.30;;;3.10;;
18661;SDS011;61528;49.456;11.098;2023-08-06T03:31:25;4.00;;;3.70;;
18661;SDS011;61528;49.456;11.098;2023-08-06T03:33:51;3.33;;;3.03;;
18661;SDS011;61528;49.456;11.098;2023-08-06T03:36:17;4.07;;;3.67;;
18661;SDS011;61528;49.456;11.098;2023-08-06T03:38:44;4.23;;;3.40;;
18661;SDS011;61528;49.456;11.098;2023-08-06T03:41:10;3.50;;;3.20;;
18661;SDS011;61528;49.456;11.098;2023-08-06T03:43:37;3.40;;;3.07;;
18661;SDS011;61528;49.456;11.098;2023-08-06T03:46:03;3.63;;;3.33;;
18661;SDS011;61528;49.456;11.098;2023-08-06T03:48:29;3.27;;;2.93;;
18661;SDS011;61528;49.456;11.098;2023-08-06T03:50:55;2.97;;;2.63;;
18661;SDS011;61528;49.456;11.098;2023-08-06T03:53:22;3.30;;;3.00;;
18661;SDS011;61528;49.456;11.098;2023-08-06T03:55:48;3.13;;;2.83;;
18661;SDS011;61528;49.456;11.098;2023-08-06T03:58:15;2.80;;;2.40;;
18661;SDS011;61528;49.456;11.098;2023-08-06T04:00:41;2.70;;;2.50;;
18661;SDS011;61528;49.456;11.098;2023-08-06T04:03:08;2.77;;;2.57;;
18661;SDS011;61528;49.456;11.098;2023-08-06T04:05:34;4.13;;;3.00;;
18661;SDS011;61528;49.456;11.098;2023-08-06T04:08:00;4.83;;;2.90;;
18661;SDS011;61528;49.456;11.098;2023-08-06T04:10:28;4.60;;;2.70;;
18661;SDS011;61528;49.456;11.098;2023-08-06T04:12:54;3.57;;;2.47;;
18661;SDS011;61528;49.456;11.098;2023-08-06T04:15:20;3.23;;;2.93;;
18661;SDS011;61528;49.456;11.098;2023-08-06T04:17:47;2.87;;;2.67;;
18661;SDS011;61528;49.456;11.098;2023-08-06T04:20:13;2.90;;;2.57;;
18661;SDS011;61528;49.456;11.098;2023-08-06T04:22:40;3.10;;;2.77;;
18661;SDS011;61528;49.456;11.098;2023-08-06T04:25:07;2.60;;;2.40;;
18661;SDS011;61528;49.456;11.098;2023-08-06T04:27:33;2.90;;;2.70;;
18661;SDS011;61528;49.456;11.098;2023-08-06T04:30:03;4.20;;;2.43;;
18661;SDS011;61528;49.456;11.098;2023-08-06T04:32:30;3.63;;;3.00;;
18661;SDS011;61528;49.456;11.098;2023-08-06T04:34:56;2.93;;;2.47;;
18661;SDS011;61528;49.456;11.098;2023-08-06T04:37:22;3.07;;;2.70;;
18661;SDS011;61528;49.456;11.098;2023-08-06T04:39:49;4.00;;;2.60;;
18661;SDS011;61528;49.456;11.098;2023-08-06T04:42:15;2.93;;;2.50;;
18661;SDS011;61528;49.456;11.098;2023-08-06T04:44:43;4.60;;;2.83;;
18661;SDS011;61528;49.456;11.098;2023-08-06T04:47:09;2.70;;;2.50;;
18661;SDS011;61528;49.456;11.098;2023-08-06T04:49:36;3.30;;;2.90;;
18661;SDS011;61528;49.456;11.098;2023-08-06T04:52:02;3.93;;;2.77;;
18661;SDS011;61528;49.456;11.098;2023-08-06T04:54:28;3.13;;;2.83;;
18661;SDS011;61528;49.456;11.098;2023-08-06T04:56:54;3.17;;;2.50;;
18661;SDS011;61528;49.456;11.098;2023-08-06T04:59:21;2.80;;;2.47;;
18661;SDS011;61528;49.456;11.098;2023-08-06T05:01:47;3.13;;;2.67;;
18661;SDS011;61528;49.456;11.098;2023-08-06T05:04:13;3.67;;;3.37;;
18661;SDS011;61528;49.456;11.098;2023-08-06T05:06:40;3.30;;;3.00;;
18661;SDS011;61528;49.456;11.098;2023-08-06T05:09:06;3.03;;;2.83;;
18661;SDS011;61528;49.456;11.098;2023-08-06T05:11:33;4.40;;;3.20;;
18661;SDS011;61528;49.456;11.098;2023-08-06T05:13:59;3.87;;;3.47;;
18661;SDS011;61528;49.456;11.098;2023-08-06T05:16:25;3.47;;;3.17;;
18661;SDS011;61528;49.456;11.098;2023-08-06T05:18:51;3.27;;;2.97;;
18661;SDS011;61528;49.456;11.098;2023-08-06T05:21:18;3.80;;;3.33;;
18661;SDS011;61528;49.456;11.098;2023-08-06T05:23:44;3.23;;;3.03;;
18661;SDS011;61528;49.456;11.098;2023-08-06T05:26:10;3.20;;;3.00;;
18661;SDS011;61528;49.456;11.098;2023-08-06T05:28:37;4.57;;;3.27;;
18661;SDS011;61528;49.456;11.098;2023-08-06T05:31:04;3.73;;;3.20;;
18661;SDS011;61528;49.456;11.098;2023-08-06T05:33:30;3.30;;;3.00;;
18661;SDS011;61528;49.456;11.098;2023-08-06T05:35:56;3.73;;;3.20;;
18661;SDS011;61528;49.456;11.098;2023-08-06T05:38:22;3.73;;;3.43;;
18661;SDS011;61528;49.456;11.098;2023-08-06T05:40:48;3.47;;;3.17;;
18661;SDS011;61528;49.456;11.098;2023-08-06T05:43:15;3.77;;;3.30;;
18661;SDS011;61528;49.456;11.098;2023-08-06T05:45:45;4.27;;;3.23;;
18661;SDS011;61528;49.456;11.098;2023-08-06T05:48:14;3.63;;;3.37;;
18661;SDS011;61528;49.456;11.098;2023-08-06T05:50:40;3.73;;;3.43;;
18661;SDS011;61528;49.456;11.098;2023-08-06T05:53:07;3.63;;;3.33;;
18661;SDS011;61528;49.456;11.098;2023-08-06T05:55:33;3.43;;;3.13;;
18661;SDS011;61528;49.456;11.098;2023-08-06T05:58:00;5.63;;;3.47;;
18661;SDS011;61528;49.456;11.098;2023-08-06T06:00:26;4.73;;;3.67;;
18661;SDS011;61528;49.456;11.098;2023-08-06T06:02:53;4.53;;;3.53;;
18661;SDS011;61528;49.456;11.098;2023-08-06T06:05:19;3.63;;;3.33;;
18661;SDS011;61528;49.456;11.098;2023-08-06T06:07:45;4.77;;;3.67;;
18661;SDS011;61528;49.456;11.098;2023-08-06T06:10:11;4.30;;;3.90;;
18661;SDS011;61528;49.456;11.098;2023-08-06T06:12:38;4.10;;;3.80;;
18661;SDS011;61528;49.456;11.098;2023-08-06T06:15:05;4.33;;;3.93;;
18661;SDS011;61528;49.456;11.098;2023-08-06T06:17:31;5.60;;;3.80;;
18661;SDS011;61528;49.456;11.098;2023-08-06T06:19:57;3.70;;;3.40;;
18661;SDS011;61528;49.456;11.098;2023-08-06T06:22:24;4.00;;;3.60;;
18661;SDS011;61528;49.456;11.098;2023-08-06T06:24:50;5.70;;;3.90;;
18661;SDS011;61528;49.456;11.098;2023-08-06T06:27:16;3.47;;;3.27;;
18661;SDS011;61528;49.456;11.098;2023-08-06T06:29:43;5.17;;;3.80;;
18661;SDS011;61528;49.456;11.098;2023-08-06T06:32:10;4.87;;;4.00;;
18661;SDS011;61528;49.456;11.098;2023-08-06T06:34:36;3.90;;;3.60;;
18661;SDS011;61528;49.456;11.098;2023-08-06T06:37:03;4.10;;;3.70;;
18661;SDS011;61528;49.456;11.098;2023-08-06T06:39:29;4.93;;;3.97;;
18661;SDS011;61528;49.456;11.098;2023-08-06T06:41:55;3.80;;;3.50;;
18661;SDS011;61528;49.456;11.098;2023-08-06T06:44:21;4.27;;;3.87;;
18661;SDS011;61528;49.456;11.098;2023-08-06T06:46:48;3.80;;;3.40;;
18661;SDS011;61528;49.456;11.098;2023-08-06T06:49:14;4.30;;;3.87;;
18661;SDS011;61528;49.456;11.098;2023-08-06T06:51:40;5.00;;;3.40;;
18661;SDS011;61528;49.456;11.098;2023-08-06T06:54:07;3.87;;;3.57;;
18661;SDS011;61528;49.456;11.098;2023-08-06T06:56:33;4.33;;;3.60;;
18661;SDS011;61528;49.456;11.098;2023-08-06T06:59:00;4.10;;;3.50;;
18661;SDS011;61528;49.456;11.098;2023-08-06T07:01:26;3.83;;;3.40;;
18661;SDS011;61528;49.456;11.098;2023-08-06T07:03:52;4.27;;;3.67;;
18661;SDS011;61528;49.456;11.098;2023-08-06T07:06:19;3.93;;;3.63;;
18661;SDS011;61528;49.456;11.098;2023-08-06T07:08:45;4.63;;;3.30;;
18661;SDS011;61528;49.456;11.098;2023-08-06T07:11:11;4.90;;;3.60;;
18661;SDS011;61528;49.456;11.098;2023-08-06T07:13:38;4.73;;;3.60;;
18661;SDS011;61528;49.456;11.098;2023-08-06T07:16:04;4.03;;;3.60;;
18661;SDS011;61528;49.456;11.098;2023-08-06T07:18:30;3.10;;;2.87;;
18661;SDS011;61528;49.456;11.098;2023-08-06T07:20:56;4.13;;;3.20;;
18661;SDS011;61528;49.456;11.098;2023-08-06T07:23:23;4.27;;;3.30;;
18661;SDS011;61528;49.456;11.098;2023-08-06T07:25:50;3.93;;;3.10;;
18661;SDS011;61528;49.456;11.098;2023-08-06T07:28:16;3.40;;;2.93;;
18661;SDS011;61528;49.456;11.098;2023-08-06T07:30:43;3.60;;;3.27;;
18661;SDS011;61528;49.456;11.098;2023-08-06T07:33:10;3.40;;;2.63;;
18661;SDS011;61528;49.456;11.098;2023-08-06T07:35:37;4.13;;;3.73;;
18661;SDS011;61528;49.456;11.098;2023-08-06T07:38:04;3.60;;;3.30;;
18661;SDS011;61528;49.456;11.098;2023-08-06T07:40:30;5.17;;;3.33;;
18661;SDS011;61528;49.456;11.098;2023-08-06T07:42:57;3.93;;;3.63;;
18661;SDS011;61528;49.456;11.098;2023-08-06T07:45:23;5.13;;;3.07;;
18661;SDS011;61528;49.456;11.098;2023-08-06T07:47:52;4.50;;;3.10;;
18661;SDS011;61528;49.456;11.098;2023-08-06T07:50:18;5.23;;;2.87;;
18661;SDS011;61528;49.456;11.098;2023-08-06T07:52:44;3.30;;;3.00;;
18661;SDS011;61528;49.456;11.098;2023-08-06T07:55:10;3.07;;;2.70;;
18661;SDS011;61528;49.456;11.098;2023-08-06T07:57:37;3.10;;;2.53;;
18661;SDS011;61528;49.456;11.098;2023-08-06T08:00:04;2.47;;;2.27;;
18661;SDS011;61528;49.456;11.098;2023-08-06T08:02:30;2.23;;;2.03;;
18661;SDS011;61528;49.456;11.098;2023-08-06T08:04:57;3.03;;;2.37;;
18661;SDS011;61528;49.456;11.098;2023-08-06T08:07:23;2.43;;;2.03;;
18661;SDS011;61528;49.456;11.098;2023-08-06T08:09:50;3.23;;;2.27;;
18661;SDS011;61528;49.456;11.098;2023-08-06T08:12:17;3.20;;;2.23;;
18661;SDS011;61528;49.456;11.098;2023-08-06T08:14:44;2.27;;;2.07;;
18661;SDS011;61528;49.456;11.098;2023-08-06T08:17:10;4.10;;;2.07;;
18661;SDS011;61528;49.456;11.098;2023-08-06T08:19:37;1.70;;;1.60;;
18661;SDS011;61528;49.456;11.098;2023-08-06T08:22:03;3.27;;;1.90;;
18661;SDS011;61528;49.456;11.098;2023-08-06T08:24:30;2.53;;;1.70;;
18661;SDS011;61528;49.456;11.098;2023-08-06T08:26:56;2.43;;;1.40;;
18661;SDS011;61528;49.456;11.098;2023-08-06T08:29:23;1.30;;;1.20;;
18661;SDS011;61528;49.456;11.098;2023-08-06T08:31:49;1.20;;;1.10;;
18661;SDS011;61528;49.456;11.098;2023-08-06T08:34:16;1.17;;;1.03;;
18661;SDS011;61528;49.456;11.098;2023-08-06T08:36:42;0.90;;;0.90;;
18661;SDS011;61528;49.456;11.098;2023-08-06T08:39:08;1.20;;;1.00;;
18661;SDS011;61528;49.456;11.098;2023-08-06T08:41:36;1.53;;;0.80;;
18661;SDS011;61528;49.456;11.098;2023-08-06T08:44:03;0.70;;;0.70;;
18661;SDS011;61528;49.456;11.098;2023-08-06T08:46:31;0.70;;;0.70;;
18661;SDS011;61528;49.456;11.098;2023-08-06T08:48:58;1.80;;;0.80;;
18661;SDS011;61528;49.456;11.098;2023-08-06T08:51:26;0.60;;;0.50;;
18661;SDS011;61528;49.456;11.098;2023-08-06T08:53:53;1.27;;;0.67;;
18661;SDS011;61528;49.456;11.098;2023-08-06T08:56:23;0.90;;;0.53;;
18661;SDS011;61528;49.456;11.098;2023-08-06T08:58:49;0.87;;;0.50;;
18661;SDS011;61528;49.456;11.098;2023-08-06T09:01:18;0.93;;;0.33;;
18661;SDS011;61528;49.456;11.098;2023-08-06T09:03:45;0.33;;;0.33;;
18661;SDS011;61528;49.456;11.098;2023-08-06T09:06:12;0.30;;;0.30;;
18661;SDS011;61528;49.456;11.098;2023-08-06T09:08:47;0.53;;;0.40;;
18661;SDS011;61528;49.456;11.098;2023-08-06T09:11:15;0.73;;;0.50;;
18661;SDS011;61528;49.456;11.098;2023-08-06T09:13:42;0.43;;;0.43;;
18661;SDS011;61528;49.456;11.098;2023-08-06T09:16:09;0.83;;;0.50;;
18661;SDS011;61528;49.456;11.098;2023-08-06T09:18:35;0.63;;;0.30;;
18661;SDS011;61528;49.456;11.098;2023-08-06T09:21:04;2.23;;;0.40;;
18661;SDS011;61528;49.456;11.098;2023-08-06T09:23:31;0.60;;;0.50;;
18661;SDS011;61528;49.456;11.098;2023-08-06T09:25:58;0.30;;;0.30;;
18661;SDS011;61528;49.456;11.098;2023-08-06T09:28:39;1.37;;;0.50;;
18661;SDS011;61528;49.456;11.098;2023-08-06T09:31:08;0.30;;;0.30;;
18661;SDS011;61528;49.456;11.098;2023-08-06T09:33:38;0.40;;;0.40;;
18661;SDS011;61528;49.456;11.098;2023-08-06T09:36:08;0.40;;;0.40;;
18661;SDS011;61528;49.456;11.098;2023-08-06T09:38:38;0.30;;;0.30;;
18661;SDS011;61528;49.456;11.098;2023-08-06T09:41:07;0.40;;;0.40;;
18661;SDS011;61528;49.456;11.098;2023-08-06T09:43:40;0.30;;;0.30;;
18661;SDS011;61528;49.456;11.098;2023-08-06T09:46:10;0.40;;;0.40;;
18661;SDS011;61528;49.456;11.098;2023-08-06T09:48:38;0.40;;;0.40;;
18661;SDS011;61528;49.456;11.098;2023-08-06T09:51:06;0.63;;;0.63;;
18661;SDS011;61528;49.456;11.098;2023-08-06T09:53:34;1.17;;;1.07;;
18661;SDS011;61528;49.456;11.098;2023-08-06T09:56:00;0.53;;;0.40;;
18661;SDS011;61528;49.456;11.098;2023-08-06T09:58:27;0.23;;;0.23;;
18661;SDS011;61528;49.456;11.098;2023-08-06T10:00:54;1.00;;;1.00;;
18661;SDS011;61528;49.456;11.098;2023-08-06T10:03:20;0.70;;;0.70;;
18661;SDS011;61528;49.456;11.098;2023-08-06T10:05:47;0.57;;;0.50;;
18661;SDS011;61528;49.456;11.098;2023-08-06T10:08:13;1.27;;;0.40;;
18661;SDS011;61528;49.456;11.098;2023-08-06T10:10:40;0.40;;;0.40;;
18661;SDS011;61528;49.456;11.098;2023-08-06T10:13:06;0.50;;;0.50;;
18661;SDS011;61528;49.456;11.098;2023-08-06T10:15:33;0.60;;;0.50;;
18661;SDS011;61528;49.456;11.098;2023-08-06T10:18:01;0.50;;;0.50;;
18661;SDS011;61528;49.456;11.098;2023-08-06T10:20:32;0.47;;;0.47;;
18661;SDS011;61528;49.456;11.098;2023-08-06T10:23:02;0.87;;;0.30;;
18661;SDS011;61528;49.456;11.098;2023-08-06T10:25:32;0.30;;;0.30;;
18661;SDS011;61528;49.456;11.098;2023-08-06T10:27:59;0.50;;;0.50;;
18661;SDS011;61528;49.456;11.098;2023-08-06T10:30:31;0.30;;;0.30;;
18661;SDS011;61528;49.456;11.098;2023-08-06T10:33:02;0.37;;;0.37;;
18661;SDS011;61528;49.456;11.098;2023-08-06T10:35:41;0.90;;;0.47;;
18661;SDS011;61528;49.456;11.098;2023-08-06T10:38:14;0.40;;;0.40;;
18661;SDS011;61528;49.456;11.098;2023-08-06T10:41:02;0.83;;;0.73;;
18661;SDS011;61528;49.456;11.098;2023-08-06T10:43:34;1.50;;;0.43;;
18661;SDS011;61528;49.456;11.098;2023-08-06T10:46:03;0.30;;;0.30;;
18661;SDS011;61528;49.456;11.098;2023-08-06T10:48:37;0.47;;;0.40;;
18661;SDS011;61528;49.456;11.098;2023-08-06T10:51:08;0.50;;;0.50;;
18661;SDS011;61528;49.456;11.098;2023-08-06T10:53:34;1.00;;;0.50;;
18661;SDS011;61528;49.456;11.098;2023-08-06T10:56:01;0.60;;;0.60;;
18661;SDS011;61528;49.456;11.098;2023-08-06T10:58:31;0.60;;;0.40;;
18661;SDS011;61528;49.456;11.098;2023-08-06T11:00:58;0.90;;;0.33;;
18661;SDS011;61528;49.456;11.098;2023-08-06T11:03:26;1.90;;;0.40;;
18661;SDS011;61528;49.456;11.098;2023-08-06T11:05:53;0.40;;;0.40;;
18661;SDS011;61528;49.456;11.098;2023-08-06T11:08:23;0.50;;;0.50;;
18661;SDS011;61528;49.456;11.098;2023-08-06T11:10:49;0.20;;;0.20;;
18661;SDS011;61528;49.456;11.098;2023-08-06T11:13:19;0.70;;;0.50;;
18661;SDS011;61528;49.456;11.098;2023-08-06T11:15:46;0.30;;;0.30;;
18661;SDS011;61528;49.456;11.098;2023-08-06T11:18:12;0.77;;;0.40;;
18661;SDS011;61528;49.456;11.098;2023-08-06T11:20:39;0.50;;;0.50;;
18661;SDS011;61528;49.456;11.098;2023-08-06T11:23:06;1.47;;;0.60;;
18661;SDS011;61528;49.456;11.098;2023-08-06T11:25:43;0.40;;;0.40;;
18661;SDS011;61528;49.456;11.098;2023-08-06T11:28:11;0.30;;;0.30;;
18661;SDS011;61528;49.456;11.098;2023-08-06T11:30:37;0.90;;;0.80;;
18661;SDS011;61528;49.456;11.098;2023-08-06T11:33:06;0.20;;;0.20;;
18661;SDS011;61528;49.456;11.098;2023-08-06T11:35:35;0.50;;;0.50;;
18661;SDS011;61528;49.456;11.098;2023-08-06T11:38:01;0.30;;;0.30;;
18661;SDS011;61528;49.456;11.098;2023-08-06T11:40:28;0.40;;;0.40;;
18661;SDS011;61528;49.456;11.098;2023-08-06T11:42:54;0.50;;;0.50;;
18661;SDS011;61528;49.456;11.098;2023-08-06T11:45:24;0.37;;;0.37;;
18661;SDS011;61528;49.456;11.098;2023-08-06T11:47:53;0.40;;;0.40;;
18661;SDS011;61528;49.456;11.098;2023-08-06T11:50:23;0.60;;;0.50;;
18661;SDS011;61528;49.456;11.098;2023-08-06T11:52:52;0.30;;;0.30;;
18661;SDS011;61528;49.456;11.098;2023-08-06T12:01:09;0.30;;;0.30;;
18661;SDS011;61528;49.456;11.098;2023-08-06T12:03:40;1.00;;;0.60;;
18661;SDS011;61528;49.456;11.098;2023-08-06T12:09:10;0.43;;;0.30;;
18661;SDS011;61528;49.456;11.098;2023-08-06T12:11:37;2.20;;;0.40;;
18661;SDS011;61528;49.456;11.098;2023-08-06T12:14:03;0.20;;;0.20;;
18661;SDS011;61528;49.456;11.098;2023-08-06T12:16:29;1.43;;;0.43;;
18661;SDS011;61528;49.456;11.098;2023-08-06T12:18:57;0.53;;;0.53;;
18661;SDS011;61528;49.456;11.098;2023-08-06T12:21:23;1.03;;;0.90;;
18661;SDS011;61528;49.456;11.098;2023-08-06T12:23:49;0.60;;;0.60;;
18661;SDS011;61528;49.456;11.098;2023-08-06T12:26:16;0.87;;;0.30;;
18661;SDS011;61528;49.456;11.098;2023-08-06T12:28:42;0.53;;;0.40;;
18661;SDS011;61528;49.456;11.098;2023-08-06T12:31:10;0.47;;;0.40;;
18661;SDS011;61528;49.456;11.098;2023-08-06T12:33:36;0.50;;;0.50;;
18661;SDS011;61528;49.456;11.098;2023-08-06T12:36:03;0.63;;;0.50;;
18661;SDS011;61528;49.456;11.098;2023-08-06T12:38:30;0.50;;;0.50;;
18661;SDS011;61528;49.456;11.098;2023-08-06T12:40:58;2.03;;;1.20;;
18661;SDS011;61528;49.456;11.098;2023-08-06T12:43:25;0.40;;;0.40;;
18661;SDS011;61528;49.456;11.098;2023-08-06T12:45:51;3.60;;;1.03;;
18661;SDS011;61528;49.456;11.098;2023-08-06T12:48:17;0.60;;;0.60;;
18661;SDS011;61528;49.456;11.098;2023-08-06T12:50:44;0.50;;;0.50;;
18661;SDS011;61528;49.456;11.098;2023-08-06T12:53:11;0.33;;;0.30;;
18661;SDS011;61528;49.456;11.098;2023-08-06T12:55:37;0.50;;;0.50;;
18661;SDS011;61528;49.456;11.098;2023-08-06T12:58:05;0.20;;;0.20;;
18661;SDS011;61528;49.456;11.098;2023-08-06T13:00:32;0.43;;;0.30;;
18661;SDS011;61528;49.456;11.098;2023-08-06T13:02:59;0.47;;;0.20;;
18661;SDS011;61528;49.456;11.098;2023-08-06T13:05:25;0.30;;;0.30;;
18661;SDS011;61528;49.456;11.098;2023-08-06T13:07:52;0.30;;;0.30;;
18661;SDS011;61528;49.456;11.098;2023-08-06T13:10:18;0.40;;;0.40;;
18661;SDS011;61528;49.456;11.098;2023-08-06T13:12:46;0.30;;;0.27;;
18661;SDS011;61528;49.456;11.098;2023-08-06T13:15:12;0.70;;;0.20;;
18661;SDS011;61528;49.456;11.098;2023-08-06T13:17:39;0.83;;;0.40;;
18661;SDS011;61528;49.456;11.098;2023-08-06T13:20:06;0.67;;;0.20;;
18661;SDS011;61528;49.456;11.098;2023-08-06T13:22:33;0.47;;;0.30;;
18661;SDS011;61528;49.456;11.098;2023-08-06T13:24:59;0.40;;;0.33;;
18661;SDS011;61528;49.456;11.098;2023-08-06T13:27:25;0.47;;;0.17;;
18661;SDS011;61528;49.456;11.098;2023-08-06T13:29:52;1.07;;;0.47;;
18661;SDS011;61528;49.456;11.098;2023-08-06T13:32:19;0.97;;;0.40;;
18661;SDS011;61528;49.456;11.098;2023-08-06T13:34:45;0.77;;;0.30;;
18661;SDS011;61528;49.456;11.098;2023-08-06T13:37:12;1.60;;;0.30;;
18661;SDS011;61528;49.456;11.098;2023-08-06T13:39:38;1.70;;;0.30;;
18661;SDS011;61528;49.456;11.098;2023-08-06T13:42:05;0.30;;;0.30;;
18661;SDS011;61528;49.456;11.098;2023-08-06T13:44:31;0.10;;;0.10;;
18661;SDS011;61528;49.456;11.098;2023-08-06T13:47:00;0.20;;;0.20;;
18661;SDS011;61528;49.456;11.098;2023-08-06T13:49:27;0.67;;;0.10;;
18661;SDS011;61528;49.456;11.098;2023-08-06T13:51:54;0.40;;;0.37;;
18661;SDS011;61528;49.456;11.098;2023-08-06T13:54:20;2.90;;;0.43;;
18661;SDS011;61528;49.456;11.098;2023-08-06T13:56:47;0.20;;;0.20;;
18661;SDS011;61528;49.456;11.098;2023-08-06T13:59:13;0.40;;;0.20;;
18661;SDS011;61528;49.456;11.098;2023-08-06T14:01:40;0.60;;;0.30;;
18661;SDS011;61528;49.456;11.098;2023-08-06T14:04:07;0.37;;;0.37;;
18661;SDS011;61528;49.456;11.098;2023-08-06T14:06:33;0.40;;;0.10;;
18661;SDS011;61528;49.456;11.098;2023-08-06T14:08:59;0.20;;;0.20;;
18661;SDS011;61528;49.456;11.098;2023-08-06T14:11:26;0.53;;;0.33;;
18661;SDS011;61528;49.456;11.098;2023-08-06T14:13:52;0.30;;;0.30;;
18661;SDS011;61528;49.456;11.098;2023-08-06T14:16:19;0.93;;;0.23;;
18661;SDS011;61528;49.456;11.098;2023-08-06T14:18:45;0.60;;;0.60;;
18661;SDS011;61528;49.456;11.098;2023-08-06T14:21:12;0.53;;;0.50;;
18661;SDS011;61528;49.456;11.098;2023-08-06T14:23:39;0.50;;;0.30;;
18661;SDS011;61528;49.456;11.098;2023-08-06T14:26:07;0.30;;;0.30;;
18661;SDS011;61528;49.456;11.098;2023-08-06T14:28:35;0.30;;;0.27;;
18661;SDS011;61528;49.456;11.098;2023-08-06T14:31:01;0.67;;;0.50;;
18661;SDS011;61528;49.456;11.098;2023-08-06T14:33:28;0.60;;;0.50;;
18661;SDS011;61528;49.456;11.098;2023-08-06T14:35:55;0.60;;;0.60;;
18661;SDS011;61528;49.456;11.098;2023-08-06T14:38:21;0.27;;;0.27;;
18661;SDS011;61528;49.456;11.098;2023-08-06T14:40:47;0.30;;;0.30;;
18661;SDS011;61528;49.456;11.098;2023-08-06T14:43:14;0.67;;;0.60;;
18661;SDS011;61528;49.456;11.098;2023-08-06T14:45:40;1.20;;;0.40;;